createdAt,value
2022-08-23T00:02:25.564Z,65.54
2022-08-23T00:05:08.305Z,65.59
2022-08-23T00:07:42.054Z,64.73
2022-08-23T00:10:10.440Z,64.45
2022-08-23T00:12:37.736Z,64.13
2022-08-23T00:15:04.963Z,65.19
2022-08-23T00:17:34.541Z,65.00
2022-08-23T00:20:07.524Z,65.58
2022-08-23T00:22:34.289Z,66.08
2022-08-23T00:25:00.911Z,64.78
2022-08-23T00:27:27.654Z,65.87
2022-08-23T00:29:55.691Z,65.13
2022-08-23T00:32:29.626Z,65.14
2022-08-23T00:34:56.985Z,65.70
2022-08-23T00:37:24.050Z,65.47
2022-08-23T00:39:51.283Z,65.63
2022-08-23T00:42:53.593Z,66.05
2022-08-23T00:45:45.644Z,66.47
2022-08-23T00:48:13.269Z,65.32
2022-08-23T00:50:42.735Z,64.88
2022-08-23T00:53:24.009Z,65.67
2022-08-23T00:55:54.554Z,65.75
2022-08-23T00:58:21.885Z,66.39
2022-08-23T01:00:50.168Z,66.33
2022-08-23T01:03:18.645Z,66.76
2022-08-23T01:05:55.771Z,67.51
2022-08-23T01:08:25.558Z,67.81
2022-08-23T01:10:57.107Z,67.97
2022-08-23T01:13:30.158Z,68.19
2022-08-23T01:16:01.100Z,68.22
2022-08-23T01:18:30.470Z,68.45
2022-08-23T01:21:10.564Z,68.26
2022-08-23T01:23:53.526Z,68.92
2022-08-23T01:26:22.223Z,68.91
2022-08-23T01:28:49.941Z,69.29
2022-08-23T01:31:18.546Z,70.12
2022-08-23T01:33:49.981Z,69.92
2022-08-23T01:36:17.385Z,71.03
2022-08-23T01:38:43.910Z,70.82
2022-08-23T01:41:10.377Z,70.25
2022-08-23T01:43:37.880Z,70.52
2022-08-23T01:46:11.169Z,70.91
2022-08-23T01:48:37.649Z,71.18
2022-08-23T01:51:04.956Z,70.79
2022-08-23T01:53:32.048Z,71.09
2022-08-23T01:56:01.712Z,71.58
2022-08-23T01:58:32.549Z,71.62
2022-08-23T02:00:59.380Z,71.61
2022-08-23T02:03:26.098Z,71.73
2022-08-23T02:08:42.737Z,72.82
2022-08-23T02:11:15.194Z,72.77
2022-08-23T02:13:43.371Z,72.47
2022-08-23T02:16:10.792Z,72.60
2022-08-23T02:18:41.690Z,73.49
2022-08-23T02:21:09.678Z,73.49
2022-08-23T02:23:36.165Z,73.36
2022-08-23T02:26:02.657Z,72.34
2022-08-23T02:28:29.111Z,72.45
2022-08-23T02:30:55.572Z,72.19
2022-08-23T02:33:22.267Z,72.48
2022-08-23T02:35:49.645Z,71.62
2022-08-23T02:38:17.217Z,71.80
2022-08-23T02:40:44.105Z,71.95
2022-08-23T02:43:11.382Z,72.06
2022-08-23T02:45:38.577Z,72.30
2022-08-23T02:48:05.400Z,72.03
2022-08-23T02:50:32.579Z,72.10
2022-08-23T02:52:59.324Z,71.78
2022-08-23T02:55:26.616Z,71.77
2022-08-23T02:57:53.546Z,72.88
2022-08-23T03:00:20.420Z,72.19
2022-08-23T03:02:47.410Z,73.40
2022-08-23T03:05:15.241Z,73.57
2022-08-23T03:07:42.402Z,73.09
2022-08-23T03:10:10.460Z,73.24
2022-08-23T03:12:37.935Z,73.14
2022-08-23T03:15:05.711Z,72.75
2022-08-23T03:17:32.447Z,73.03
2022-08-23T03:19:58.995Z,74.10
2022-08-23T03:22:25.545Z,72.77
2022-08-23T03:24:52.482Z,71.58
2022-08-23T03:27:18.940Z,72.32
2022-08-23T03:29:45.408Z,73.35
2022-08-23T03:32:11.926Z,72.90
2022-08-23T03:34:42.058Z,73.35
2022-08-23T03:37:08.592Z,73.80
2022-08-23T03:39:35.112Z,74.25
2022-08-23T03:42:01.629Z,74.48
2022-08-23T03:44:28.227Z,74.79
2022-08-23T03:46:54.776Z,76.41
2022-08-23T03:49:21.292Z,76.20
2022-08-23T03:51:47.777Z,76.15
2022-08-23T03:54:14.317Z,76.04
2022-08-23T03:56:55.529Z,76.56
2022-08-23T03:59:22.410Z,76.71
2022-08-23T04:01:49.438Z,76.29
2022-08-23T04:04:16.183Z,74.55
2022-08-23T04:06:45.084Z,73.96
2022-08-23T04:09:13.393Z,74.72
2022-08-23T04:11:40.027Z,74.52
2022-08-23T04:14:06.740Z,75.00
2022-08-23T04:16:37.496Z,74.04
2022-08-23T04:19:04.991Z,74.76
2022-08-23T04:21:32.195Z,74.23
2022-08-23T04:23:58.678Z,74.98
2022-08-23T04:26:29.691Z,74.68
2022-08-23T04:28:56.998Z,74.35
2022-08-23T04:31:26.168Z,74.37
2022-08-23T04:33:54.369Z,74.27
2022-08-23T04:36:23.426Z,74.27
2022-08-23T04:38:50.163Z,73.58
2022-08-23T04:41:36.342Z,72.74
2022-08-23T04:44:03.508Z,74.66
2022-08-23T04:46:29.977Z,75.94
2022-08-23T04:48:56.577Z,76.43
2022-08-23T04:51:23.096Z,76.57
2022-08-23T04:53:49.586Z,77.17
2022-08-23T04:56:16.098Z,77.57
2022-08-23T04:58:42.557Z,77.17
2022-08-23T05:01:10.923Z,77.06
2022-08-23T05:03:38.454Z,77.37
2022-08-23T05:06:05.260Z,79.08
2022-08-23T05:08:32.380Z,78.04
2022-08-23T05:11:04.665Z,77.87
2022-08-23T05:13:32.725Z,76.49
2022-08-23T05:16:01.837Z,77.38
2022-08-23T05:18:28.386Z,75.96
2022-08-23T05:20:54.910Z,75.96
2022-08-23T05:23:23.484Z,76.63
2022-08-23T05:25:59.187Z,76.28
2022-08-23T05:28:30.309Z,75.03
2022-08-23T05:31:32.223Z,75.02
2022-08-23T05:33:59.117Z,73.48
2022-08-23T05:36:25.636Z,73.05
2022-08-23T05:38:53.392Z,72.30
2022-08-23T05:41:21.104Z,72.26
2022-08-23T05:43:48.339Z,71.82
2022-08-23T05:46:18.433Z,71.27
2022-08-23T05:48:48.457Z,71.12
2022-08-23T05:51:16.526Z,70.65
2022-08-23T05:53:44.365Z,69.33
2022-08-23T05:56:13.635Z,68.47
2022-08-23T05:58:40.545Z,67.44
2022-08-23T06:01:07.115Z,66.61
2022-08-23T06:03:33.662Z,66.02
2022-08-23T06:06:01.609Z,64.77
2022-08-23T06:08:28.566Z,64.80
2022-08-23T06:11:06.625Z,62.92
2022-08-23T06:13:33.981Z,62.20
2022-08-23T06:16:00.499Z,60.91
2022-08-23T06:18:41.103Z,59.59
2022-08-23T06:21:11.273Z,58.73
2022-08-23T06:23:38.461Z,58.69
2022-08-23T06:26:17.179Z,57.33
2022-08-23T06:28:50.882Z,55.22
2022-08-23T06:31:38.829Z,54.98
2022-08-23T06:34:05.457Z,54.06
2022-08-23T06:36:31.993Z,53.21
2022-08-23T06:38:58.460Z,52.10
2022-08-23T06:41:25.074Z,51.61
2022-08-23T06:43:51.788Z,50.61
2022-08-23T06:46:23.450Z,50.28
2022-08-23T06:48:50.976Z,50.24
2022-08-23T06:51:27.654Z,48.81
2022-08-23T06:54:02.871Z,48.47
2022-08-23T06:56:30.049Z,48.41
2022-08-23T06:58:56.967Z,47.05
2022-08-23T07:01:45.090Z,46.78
2022-08-23T07:04:15.897Z,44.98
2022-08-23T07:06:42.567Z,43.75
2022-08-23T07:09:09.081Z,43.08
2022-08-23T07:11:36.784Z,42.75
2022-08-23T07:14:10.493Z,41.42
2022-08-23T07:16:40.854Z,41.87
2022-08-23T07:19:09.093Z,40.08
2022-08-23T07:21:36.696Z,39.65
2022-08-23T07:24:04.022Z,41.34
2022-08-23T07:26:31.405Z,41.08
2022-08-23T07:28:58.013Z,40.12
2022-08-23T07:31:31.746Z,39.45
2022-08-23T07:34:02.475Z,37.22
2022-08-23T07:36:31.664Z,37.36
2022-08-23T07:38:58.766Z,35.76
2022-08-23T07:41:31.112Z,35.83
2022-08-23T07:44:02.393Z,34.90
2022-08-23T07:46:31.088Z,33.78
2022-08-23T07:48:58.273Z,32.19
2022-08-23T07:51:25.857Z,31.25
2022-08-23T07:53:52.354Z,32.77
2022-08-23T07:56:20.870Z,32.21
2022-08-23T07:58:47.727Z,30.89
2022-08-23T08:01:16.426Z,31.58
2022-08-23T08:03:44.133Z,29.37
2022-08-23T08:06:13.813Z,30.09
2022-08-23T08:08:41.728Z,29.75
2022-08-23T08:11:10.928Z,29.86
2022-08-23T08:13:39.137Z,28.29
2022-08-23T08:16:06.115Z,28.17
2022-08-23T08:18:32.773Z,27.44
2022-08-23T08:20:59.368Z,29.14
2022-08-23T08:23:25.861Z,27.09
2022-08-23T08:26:02.968Z,29.40
2022-08-23T08:28:29.637Z,29.74
2022-08-23T08:30:56.262Z,31.51
2022-08-23T08:33:22.837Z,29.30
2022-08-23T08:36:00.874Z,28.19
2022-08-23T08:38:30.628Z,28.38
2022-08-23T08:41:34.805Z,27.35
2022-08-23T08:44:19.153Z,24.80
2022-08-23T08:46:51.550Z,24.94
2022-08-23T08:49:32.003Z,25.07
2022-08-23T08:52:32.365Z,24.41
2022-08-23T08:55:23.394Z,25.53
2022-08-23T08:57:53.537Z,23.15
2022-08-23T09:00:25.237Z,22.86
2022-08-23T09:02:52.130Z,21.73
2022-08-23T09:05:29.115Z,21.32
2022-08-23T09:08:24.405Z,24.71
2022-08-23T09:11:18.686Z,23.14
2022-08-23T09:14:16.726Z,22.06
2022-08-23T09:16:53.537Z,23.99
2022-08-23T09:19:22.943Z,21.73
2022-08-23T09:21:58.241Z,21.23
2022-08-23T09:24:26.162Z,18.84
2022-08-23T09:26:56.288Z,19.14
2022-08-23T09:29:32.007Z,18.53
2022-08-23T09:32:20.995Z,21.14
2022-08-23T09:34:47.437Z,21.51
2022-08-23T09:37:23.478Z,20.71
2022-08-23T09:40:16.475Z,18.82
2022-08-23T09:42:44.039Z,19.08
2022-08-23T09:45:28.115Z,19.20
2022-08-23T09:47:55.422Z,17.86
2022-08-23T09:50:29.112Z,17.85
2022-08-23T09:53:00.204Z,16.24
2022-08-23T09:55:32.191Z,16.84
2022-08-23T09:58:00.744Z,15.79
2022-08-23T10:00:32.476Z,16.04
2022-08-23T10:03:28.855Z,17.28
2022-08-23T10:06:00.926Z,15.55
2022-08-23T10:08:32.822Z,16.28
2022-08-23T10:11:05.390Z,15.39
2022-08-23T10:13:35.972Z,14.69
2022-08-23T10:16:29.066Z,18.62
2022-08-23T10:19:03.473Z,15.75
2022-08-23T10:21:54.417Z,16.45
2022-08-23T10:25:02.645Z,14.62
2022-08-23T10:28:12.549Z,16.44
2022-08-23T10:30:45.800Z,14.80
2022-08-23T10:34:02.163Z,13.50
2022-08-23T10:36:34.038Z,15.19
2022-08-23T10:39:21.414Z,13.81
2022-08-23T10:42:13.936Z,14.53
2022-08-23T10:44:55.556Z,13.43
2022-08-23T10:47:23.073Z,13.40
2022-08-23T10:49:52.550Z,12.75
2022-08-23T10:53:04.003Z,12.54
2022-08-23T10:56:02.850Z,14.20
2022-08-23T10:58:38.777Z,13.85
2022-08-23T11:01:07.855Z,13.43
2022-08-23T11:04:20.733Z,14.01
2022-08-23T11:06:54.632Z,14.38
2022-08-23T11:09:21.174Z,14.11
2022-08-23T11:12:19.498Z,14.25
2022-08-23T11:14:58.070Z,15.59
2022-08-23T11:17:27.067Z,15.92
2022-08-23T11:20:14.642Z,14.79
2022-08-23T11:23:00.065Z,14.19
2022-08-23T11:25:26.438Z,13.87
2022-08-23T11:28:20.585Z,13.31
2022-08-23T11:30:59.952Z,14.00
2022-08-23T11:33:36.946Z,13.38
2022-08-23T11:36:09.402Z,12.37
2022-08-23T11:38:48.153Z,14.13
2022-08-23T11:41:14.617Z,12.74
2022-08-23T11:43:43.894Z,13.21
2022-08-23T11:46:25.603Z,12.20
2022-08-23T11:49:29.766Z,12.29
2022-08-23T11:52:21.478Z,11.67
2022-08-23T11:55:21.830Z,12.44
2022-08-23T11:58:02.577Z,13.35
2022-08-23T12:00:57.453Z,12.47
2022-08-23T12:03:32.467Z,13.20
2022-08-23T12:06:39.279Z,14.13
2022-08-23T12:09:25.353Z,12.61
2022-08-23T12:11:54.844Z,12.76
2022-08-23T12:14:30.587Z,13.71
2022-08-23T12:17:04.350Z,13.03
2022-08-23T12:19:48.921Z,13.46
2022-08-23T12:22:19.647Z,14.09
2022-08-23T12:24:52.758Z,17.53
2022-08-23T12:27:42.246Z,15.94
2022-08-23T12:30:26.737Z,14.62
2022-08-23T12:33:28.566Z,15.15
2022-08-23T12:35:54.991Z,13.81
2022-08-23T12:38:27.201Z,14.96
2022-08-23T12:40:54.846Z,15.08
2022-08-23T12:43:22.446Z,13.33
2022-08-23T12:45:52.925Z,16.47
2022-08-23T12:48:23.027Z,13.33
2022-08-23T12:51:12.000Z,13.02
2022-08-23T12:53:45.047Z,13.53
2022-08-23T12:56:31.453Z,14.21
2022-08-23T12:59:04.883Z,13.44
2022-08-23T13:01:35.804Z,12.22
2022-08-23T13:04:12.131Z,11.51
2022-08-23T13:06:46.285Z,10.87
2022-08-23T13:09:18.917Z,12.26
2022-08-23T13:11:46.194Z,11.84
2022-08-23T13:14:44.190Z,10.89
2022-08-23T13:17:36.682Z,11.04
2022-08-23T13:20:04.048Z,12.45
2022-08-23T13:22:31.959Z,12.02
2022-08-23T13:27:57.786Z,12.64
2022-08-23T13:30:30.653Z,12.70
2022-08-23T13:33:07.693Z,12.00
2022-08-23T13:35:37.874Z,12.07
2022-08-23T13:38:18.302Z,12.15
2022-08-23T13:41:03.352Z,13.16
2022-08-23T13:43:39.333Z,13.15
2022-08-23T13:46:17.867Z,12.69
2022-08-23T13:48:57.233Z,12.82
2022-08-23T13:51:26.737Z,13.52
2022-08-23T13:53:56.163Z,12.90
2022-08-23T13:56:23.371Z,13.28
2022-08-23T13:58:56.441Z,12.12
2022-08-23T14:01:23.690Z,12.63
2022-08-23T14:03:50.314Z,13.29
2022-08-23T14:06:16.919Z,14.03
2022-08-23T14:08:43.557Z,13.42
2022-08-23T14:11:11.892Z,13.42
2022-08-23T14:13:38.694Z,13.71
2022-08-23T14:21:41.158Z,13.22
2022-08-23T14:24:07.687Z,14.36
2022-08-23T14:26:35.039Z,13.84
2022-08-23T14:29:01.533Z,13.42
2022-08-23T14:31:28.066Z,14.71
2022-08-23T14:33:58.815Z,15.09
2022-08-23T14:36:29.919Z,14.35
2022-08-23T14:38:56.770Z,15.56
2022-08-23T14:41:26.487Z,15.13
2022-08-23T14:43:53.981Z,15.19
2022-08-23T14:46:21.983Z,15.93
2022-08-23T14:48:48.536Z,16.10
2022-08-23T14:51:32.582Z,16.48
2022-08-23T14:54:00.128Z,16.18
2022-08-23T14:56:27.060Z,16.97
2022-08-23T14:58:53.514Z,18.82
2022-08-23T15:01:20.930Z,19.13
2022-08-23T15:03:47.718Z,17.79
2022-08-23T15:06:15.960Z,17.26
2022-08-23T15:08:43.550Z,17.95
2022-08-23T15:14:00.412Z,19.40
2022-08-23T15:16:27.816Z,20.21
2022-08-23T15:18:55.467Z,20.53
2022-08-23T15:21:22.356Z,21.45
2022-08-23T15:23:49.547Z,20.73
2022-08-23T15:26:20.073Z,20.28
2022-08-23T15:28:46.696Z,20.76
2022-08-23T15:31:16.014Z,21.32
2022-08-23T15:33:42.660Z,22.13
2022-08-23T15:36:11.737Z,22.09
2022-08-23T15:38:38.688Z,22.72
2022-08-23T15:41:05.930Z,21.90
2022-08-23T15:43:34.345Z,22.47
2022-08-23T15:46:07.567Z,23.06
2022-08-23T15:48:41.721Z,22.45
2022-08-23T15:51:09.810Z,22.60
2022-08-23T15:53:40.328Z,22.97
2022-08-23T15:56:13.683Z,22.76
2022-08-23T15:58:40.321Z,23.19
2022-08-23T16:01:07.023Z,22.75
2022-08-23T16:03:33.913Z,23.25
2022-08-23T16:06:01.841Z,23.46
2022-08-23T16:08:32.381Z,23.61
2022-08-23T16:10:59.349Z,23.49
2022-08-23T16:13:26.753Z,22.97
2022-08-23T16:15:53.418Z,22.84
2022-08-23T16:18:19.969Z,23.02
2022-08-23T16:20:46.502Z,22.38
2022-08-23T16:23:13.504Z,23.64
2022-08-23T16:25:40.883Z,23.60
2022-08-23T16:28:07.981Z,22.78
2022-08-23T16:30:35.253Z,23.05
2022-08-23T16:33:02.075Z,22.25
2022-08-23T16:35:28.729Z,22.05
2022-08-23T16:37:55.334Z,22.40
2022-08-23T16:40:22.657Z,22.10
2022-08-23T16:42:49.340Z,22.43
2022-08-23T16:45:15.898Z,22.85
2022-08-23T16:47:44.838Z,23.15
2022-08-23T16:50:13.170Z,23.75
2022-08-23T16:52:39.762Z,23.47
2022-08-23T16:55:09.758Z,23.38
2022-08-23T16:57:36.774Z,23.40
2022-08-23T17:00:06.945Z,24.77
2022-08-23T17:02:36.483Z,23.68
2022-08-23T17:05:05.751Z,24.40
2022-08-23T17:07:32.505Z,25.06
2022-08-23T17:09:58.975Z,24.45
2022-08-23T17:12:25.909Z,24.23
2022-08-23T17:14:52.501Z,24.20
2022-08-23T17:17:19.037Z,24.50
2022-08-23T17:19:45.909Z,25.14
2022-08-23T17:22:12.523Z,26.07
2022-08-23T17:24:39.387Z,24.88
2022-08-23T17:27:06.353Z,25.71
2022-08-23T17:29:34.637Z,25.94
2022-08-23T17:32:04.269Z,26.09
2022-08-23T17:34:30.789Z,26.08
2022-08-23T17:36:57.246Z,26.12
2022-08-23T17:39:28.302Z,26.59
2022-08-23T17:41:58.267Z,26.33
2022-08-23T17:44:25.076Z,26.34
2022-08-23T17:46:51.778Z,26.76
2022-08-23T17:49:19.183Z,27.96
2022-08-23T17:51:45.729Z,27.84
2022-08-23T17:54:16.038Z,27.91
2022-08-23T17:56:49.876Z,27.92
2022-08-23T17:59:18.383Z,29.09
2022-08-23T18:01:44.865Z,30.26
2022-08-23T18:04:11.733Z,30.12
2022-08-23T18:06:38.625Z,28.38
2022-08-23T18:09:06.906Z,28.50
2022-08-23T18:11:34.925Z,29.47
2022-08-23T18:14:02.108Z,30.29
2022-08-23T18:16:34.449Z,30.40
2022-08-23T18:19:03.337Z,31.46
2022-08-23T18:21:30.963Z,33.53
2022-08-23T18:23:58.280Z,33.36
2022-08-23T18:26:43.507Z,33.68
2022-08-23T18:29:12.293Z,34.76
2022-08-23T18:31:41.592Z,33.72
2022-08-23T18:34:09.269Z,33.37
2022-08-23T18:36:36.295Z,34.86
2022-08-23T18:39:04.366Z,35.36
2022-08-23T18:41:33.972Z,34.30
2022-08-23T18:44:05.478Z,34.42
2022-08-23T18:46:37.853Z,37.08
2022-08-23T18:49:05.795Z,36.59
2022-08-23T18:51:36.776Z,35.06
2022-08-23T18:54:04.229Z,35.75
2022-08-23T18:56:30.828Z,35.70
2022-08-23T18:58:57.577Z,35.36
2022-08-23T19:01:30.876Z,35.70
2022-08-23T19:04:02.970Z,36.36
2022-08-23T19:06:29.644Z,36.07
2022-08-23T19:08:56.504Z,35.74
2022-08-23T19:11:24.394Z,36.85
2022-08-23T19:13:51.192Z,36.95
2022-08-23T19:16:18.784Z,36.91
2022-08-23T19:18:46.595Z,37.19
2022-08-23T19:21:15.566Z,38.21
2022-08-23T19:23:42.406Z,37.52
2022-08-23T19:26:10.695Z,38.05
2022-08-23T19:28:37.764Z,37.86
2022-08-23T19:31:05.342Z,38.59
2022-08-23T19:33:32.289Z,37.77
2022-08-23T19:35:59.032Z,38.83
2022-08-23T19:38:27.742Z,40.28
2022-08-23T19:40:55.661Z,40.30
2022-08-23T19:43:22.828Z,41.95
2022-08-23T19:45:49.433Z,41.85
2022-08-23T19:48:15.981Z,42.49
2022-08-23T19:50:42.926Z,42.50
2022-08-23T19:53:09.789Z,42.52
2022-08-23T19:55:41.711Z,42.54
2022-08-23T19:58:08.737Z,43.80
2022-08-23T20:00:35.963Z,44.01
2022-08-23T20:03:03.070Z,44.71
2022-08-23T20:05:30.223Z,45.15
2022-08-23T20:07:56.855Z,45.66
2022-08-23T20:10:23.733Z,45.41
2022-08-23T20:12:50.259Z,45.57
2022-08-23T20:15:16.749Z,45.44
2022-08-23T20:17:43.374Z,45.86
2022-08-23T20:20:13.725Z,43.80
2022-08-23T20:23:00.112Z,44.22
2022-08-23T20:25:26.653Z,43.36
2022-08-23T20:27:53.154Z,42.38
2022-08-23T20:30:19.768Z,42.57
2022-08-23T20:32:46.285Z,43.37
2022-08-23T20:35:12.964Z,41.30
2022-08-23T20:37:39.738Z,41.51
2022-08-23T20:40:10.140Z,41.99
2022-08-23T20:42:38.087Z,41.92
2022-08-23T20:45:05.682Z,41.94
2022-08-23T20:47:32.711Z,41.50
2022-08-23T20:49:59.255Z,41.99
2022-08-23T20:52:25.703Z,41.62
2022-08-23T20:54:53.447Z,42.27
2022-08-23T20:57:19.990Z,43.01
2022-08-23T20:59:46.533Z,42.29
2022-08-23T21:02:13.362Z,42.34
2022-08-23T21:04:40.306Z,42.61
2022-08-23T21:07:08.423Z,42.63
2022-08-23T21:09:35.122Z,42.28
2022-08-23T21:12:01.585Z,43.03
2022-08-23T21:14:28.156Z,43.17
2022-08-23T21:16:54.630Z,42.92
2022-08-23T21:19:21.313Z,42.61
2022-08-23T21:21:48.578Z,42.19
2022-08-23T21:24:15.536Z,42.61
2022-08-23T21:26:42.038Z,41.89
2022-08-23T21:29:09.761Z,42.17
2022-08-23T21:31:37.139Z,42.28
2022-08-23T21:34:03.885Z,42.93
2022-08-23T21:36:30.759Z,42.86
2022-08-23T21:38:57.262Z,43.36
2022-08-23T21:41:44.854Z,43.65
2022-08-23T21:44:14.966Z,43.80
2022-08-23T21:46:41.709Z,43.73
2022-08-23T21:49:08.486Z,44.07
2022-08-23T21:51:38.925Z,44.31
2022-08-23T21:54:06.920Z,44.95
2022-08-23T21:56:33.420Z,44.77
2022-08-23T21:59:01.996Z,45.03
2022-08-23T22:01:30.708Z,45.05
2022-08-23T22:03:57.440Z,45.77
2022-08-23T22:06:24.141Z,45.85
2022-08-23T22:08:50.612Z,46.19
2022-08-23T22:11:17.110Z,46.29
2022-08-23T22:13:43.665Z,46.43
2022-08-23T22:16:10.350Z,46.51
2022-08-23T22:18:36.875Z,46.53
2022-08-23T22:21:04.376Z,46.64
2022-08-23T22:23:31.850Z,46.86
2022-08-23T22:26:05.755Z,47.73
2022-08-23T22:28:33.769Z,47.51
2022-08-23T22:31:02.195Z,47.64
2022-08-23T22:33:28.920Z,48.33
2022-08-23T22:36:01.092Z,48.89
2022-08-23T22:38:27.550Z,48.88
2022-08-23T22:40:54.030Z,48.63
2022-08-23T22:43:20.729Z,48.50
2022-08-23T22:45:58.797Z,48.57
2022-08-23T22:48:29.204Z,48.98
2022-08-23T22:51:07.867Z,49.03
2022-08-23T22:53:36.641Z,49.23
2022-08-23T22:56:04.890Z,49.13
2022-08-23T22:58:31.781Z,49.08
2022-08-23T23:00:58.286Z,49.26
2022-08-23T23:03:24.854Z,49.00
2022-08-23T23:05:51.336Z,49.42
2022-08-23T23:08:29.946Z,49.65
2022-08-23T23:11:06.126Z,49.83
2022-08-23T23:13:33.240Z,49.81
2022-08-23T23:16:03.716Z,49.77
2022-08-23T23:18:30.182Z,50.17
2022-08-23T23:21:01.825Z,50.40
2022-08-23T23:23:30.781Z,50.59
2022-08-23T23:25:57.654Z,51.02
2022-08-23T23:28:24.533Z,50.94
2022-08-23T23:30:53.128Z,50.87
2022-08-23T23:33:21.753Z,51.50
2022-08-23T23:35:48.891Z,51.59
2022-08-23T23:38:15.967Z,51.44
2022-08-23T23:40:43.623Z,53.03
2022-08-23T23:43:11.892Z,52.38
2022-08-23T23:45:40.987Z,52.05
2022-08-23T23:48:08.591Z,51.80
2022-08-23T23:50:36.594Z,52.54
2022-08-23T23:53:04.182Z,53.02
2022-08-23T23:55:30.722Z,52.09
2022-08-23T23:57:57.207Z,52.29
